sensor_id;sensor_type;location;lat;lon;timestamp;P1;durP1;ratioP1;P2;durP2;ratioP2
54271;SDS011;40184;53.362;5.216;2023-07-31T00:00:50;9.68;;;1.95;;
54271;SDS011;40184;53.362;5.216;2023-07-31T00:03:16;9.30;;;1.85;;
54271;SDS011;40184;53.362;5.216;2023-07-31T00:05:42;6.72;;;1.77;;
54271;SDS011;40184;53.362;5.216;2023-07-31T00:08:09;8.68;;;2.28;;
54271;SDS011;40184;53.362;5.216;2023-07-31T00:10:35;11.48;;;2.28;;
54271;SDS011;40184;53.362;5.216;2023-07-31T00:13:01;8.80;;;2.30;;
54271;SDS011;40184;53.362;5.216;2023-07-31T00:15:27;9.73;;;2.00;;
54271;SDS011;40184;53.362;5.216;2023-07-31T00:17:53;10.98;;;2.58;;
54271;SDS011;40184;53.362;5.216;2023-07-31T00:20:19;9.20;;;2.72;;
54271;SDS011;40184;53.362;5.216;2023-07-31T00:22:45;9.57;;;2.78;;
54271;SDS011;40184;53.362;5.216;2023-07-31T00:25:12;14.68;;;2.95;;
54271;SDS011;40184;53.362;5.216;2023-07-31T00:27:38;11.52;;;2.42;;
54271;SDS011;40184;53.362;5.216;2023-07-31T00:30:04;10.43;;;2.63;;
54271;SDS011;40184;53.362;5.216;2023-07-31T00:32:30;9.50;;;2.33;;
54271;SDS011;40184;53.362;5.216;2023-07-31T00:34:56;8.43;;;3.00;;
54271;SDS011;40184;53.362;5.216;2023-07-31T00:37:22;9.77;;;2.53;;
54271;SDS011;40184;53.362;5.216;2023-07-31T00:39:48;8.23;;;2.45;;
54271;SDS011;40184;53.362;5.216;2023-07-31T00:42:14;9.30;;;1.95;;
54271;SDS011;40184;53.362;5.216;2023-07-31T00:44:40;8.45;;;2.25;;
54271;SDS011;40184;53.362;5.216;2023-07-31T00:47:06;13.55;;;2.50;;
54271;SDS011;40184;53.362;5.216;2023-07-31T00:49:32;8.45;;;2.60;;
54271;SDS011;40184;53.362;5.216;2023-07-31T00:51:58;9.20;;;2.13;;
54271;SDS011;40184;53.362;5.216;2023-07-31T00:54:25;12.27;;;2.08;;
54271;SDS011;40184;53.362;5.216;2023-07-31T00:56:52;11.65;;;2.58;;
54271;SDS011;40184;53.362;5.216;2023-07-31T00:59:18;15.98;;;3.13;;
54271;SDS011;40184;53.362;5.216;2023-07-31T01:01:45;11.40;;;2.50;;
54271;SDS011;40184;53.362;5.216;2023-07-31T01:04:11;8.02;;;2.20;;
54271;SDS011;40184;53.362;5.216;2023-07-31T01:09:20;11.05;;;2.17;;
54271;SDS011;40184;53.362;5.216;2023-07-31T01:11:53;7.32;;;1.90;;
54271;SDS011;40184;53.362;5.216;2023-07-31T01:14:20;8.77;;;2.47;;
54271;SDS011;40184;53.362;5.216;2023-07-31T01:16:46;14.65;;;2.55;;
54271;SDS011;40184;53.362;5.216;2023-07-31T01:19:12;8.02;;;1.90;;
54271;SDS011;40184;53.362;5.216;2023-07-31T01:26:36;11.38;;;2.47;;
54271;SDS011;40184;53.362;5.216;2023-07-31T01:29:10;8.35;;;2.22;;
54271;SDS011;40184;53.362;5.216;2023-07-31T01:31:38;11.40;;;1.92;;
54271;SDS011;40184;53.362;5.216;2023-07-31T01:34:05;7.45;;;1.75;;
54271;SDS011;40184;53.362;5.216;2023-07-31T01:36:32;8.45;;;2.05;;
54271;SDS011;40184;53.362;5.216;2023-07-31T01:38:58;9.40;;;1.83;;
54271;SDS011;40184;53.362;5.216;2023-07-31T01:41:25;9.55;;;1.65;;
54271;SDS011;40184;53.362;5.216;2023-07-31T01:43:51;7.38;;;1.67;;
54271;SDS011;40184;53.362;5.216;2023-07-31T01:46:17;9.07;;;2.00;;
54271;SDS011;40184;53.362;5.216;2023-07-31T01:48:43;6.47;;;1.83;;
54271;SDS011;40184;53.362;5.216;2023-07-31T01:51:09;9.20;;;2.08;;
54271;SDS011;40184;53.362;5.216;2023-07-31T01:53:36;7.57;;;2.25;;
54271;SDS011;40184;53.362;5.216;2023-07-31T01:56:02;7.95;;;2.13;;
54271;SDS011;40184;53.362;5.216;2023-07-31T01:58:28;11.07;;;1.73;;
54271;SDS011;40184;53.362;5.216;2023-07-31T02:00:54;15.60;;;3.17;;
54271;SDS011;40184;53.362;5.216;2023-07-31T02:03:20;11.43;;;2.53;;
54271;SDS011;40184;53.362;5.216;2023-07-31T02:05:46;8.23;;;1.88;;
54271;SDS011;40184;53.362;5.216;2023-07-31T02:08:13;8.15;;;1.70;;
54271;SDS011;40184;53.362;5.216;2023-07-31T02:10:39;8.25;;;2.00;;
54271;SDS011;40184;53.362;5.216;2023-07-31T02:13:05;8.68;;;1.45;;
54271;SDS011;40184;53.362;5.216;2023-07-31T02:15:31;5.55;;;1.67;;
54271;SDS011;40184;53.362;5.216;2023-07-31T02:17:57;6.03;;;2.20;;
54271;SDS011;40184;53.362;5.216;2023-07-31T02:20:23;12.02;;;2.05;;
54271;SDS011;40184;53.362;5.216;2023-07-31T02:22:49;15.25;;;2.72;;
54271;SDS011;40184;53.362;5.216;2023-07-31T02:25:15;3.78;;;1.50;;
54271;SDS011;40184;53.362;5.216;2023-07-31T02:27:42;5.60;;;1.15;;
54271;SDS011;40184;53.362;5.216;2023-07-31T02:30:08;3.78;;;1.08;;
54271;SDS011;40184;53.362;5.216;2023-07-31T02:32:34;5.28;;;1.75;;
54271;SDS011;40184;53.362;5.216;2023-07-31T02:35:00;4.95;;;1.13;;
54271;SDS011;40184;53.362;5.216;2023-07-31T02:37:26;4.43;;;1.35;;
54271;SDS011;40184;53.362;5.216;2023-07-31T02:39:54;1.85;;;1.02;;
54271;SDS011;40184;53.362;5.216;2023-07-31T02:42:20;4.22;;;1.10;;
54271;SDS011;40184;53.362;5.216;2023-07-31T02:44:46;5.00;;;1.55;;
54271;SDS011;40184;53.362;5.216;2023-07-31T02:47:12;7.40;;;1.63;;
54271;SDS011;40184;53.362;5.216;2023-07-31T02:49:38;4.68;;;1.25;;
54271;SDS011;40184;53.362;5.216;2023-07-31T02:52:04;7.45;;;1.40;;
54271;SDS011;40184;53.362;5.216;2023-07-31T02:54:30;14.65;;;3.00;;
54271;SDS011;40184;53.362;5.216;2023-07-31T02:56:56;14.73;;;3.28;;
54271;SDS011;40184;53.362;5.216;2023-07-31T02:59:22;15.38;;;2.72;;
54271;SDS011;40184;53.362;5.216;2023-07-31T03:01:50;9.40;;;1.88;;
54271;SDS011;40184;53.362;5.216;2023-07-31T03:04:16;11.50;;;1.75;;
54271;SDS011;40184;53.362;5.216;2023-07-31T03:06:42;5.95;;;1.77;;
54271;SDS011;40184;53.362;5.216;2023-07-31T03:09:08;12.27;;;1.73;;
54271;SDS011;40184;53.362;5.216;2023-07-31T03:11:34;7.65;;;2.25;;
54271;SDS011;40184;53.362;5.216;2023-07-31T03:14:00;7.00;;;2.30;;
54271;SDS011;40184;53.362;5.216;2023-07-31T03:16:26;16.42;;;2.30;;
54271;SDS011;40184;53.362;5.216;2023-07-31T03:18:53;11.98;;;2.17;;
54271;SDS011;40184;53.362;5.216;2023-07-31T03:21:19;12.55;;;3.72;;
54271;SDS011;40184;53.362;5.216;2023-07-31T03:23:45;17.85;;;5.53;;
54271;SDS011;40184;53.362;5.216;2023-07-31T03:26:12;12.07;;;4.70;;
54271;SDS011;40184;53.362;5.216;2023-07-31T03:28:38;22.70;;;5.97;;
54271;SDS011;40184;53.362;5.216;2023-07-31T03:31:04;19.13;;;5.25;;
54271;SDS011;40184;53.362;5.216;2023-07-31T03:33:30;22.85;;;5.82;;
54271;SDS011;40184;53.362;5.216;2023-07-31T03:35:56;16.67;;;4.20;;
54271;SDS011;40184;53.362;5.216;2023-07-31T03:38:23;22.48;;;6.70;;
54271;SDS011;40184;53.362;5.216;2023-07-31T03:40:49;16.20;;;5.03;;
54271;SDS011;40184;53.362;5.216;2023-07-31T03:43:15;29.83;;;6.32;;
54271;SDS011;40184;53.362;5.216;2023-07-31T03:45:41;17.33;;;4.97;;
54271;SDS011;40184;53.362;5.216;2023-07-31T03:48:07;26.52;;;5.07;;
54271;SDS011;40184;53.362;5.216;2023-07-31T03:50:33;22.08;;;5.20;;
54271;SDS011;40184;53.362;5.216;2023-07-31T03:52:59;18.83;;;6.03;;
54271;SDS011;40184;53.362;5.216;2023-07-31T03:55:25;19.35;;;4.95;;
54271;SDS011;40184;53.362;5.216;2023-07-31T03:57:51;27.98;;;6.75;;
54271;SDS011;40184;53.362;5.216;2023-07-31T04:00:18;16.20;;;4.70;;
54271;SDS011;40184;53.362;5.216;2023-07-31T04:02:44;19.95;;;4.93;;
54271;SDS011;40184;53.362;5.216;2023-07-31T04:05:10;17.33;;;3.70;;
54271;SDS011;40184;53.362;5.216;2023-07-31T04:07:36;13.52;;;2.88;;
54271;SDS011;40184;53.362;5.216;2023-07-31T04:10:03;6.43;;;1.92;;
54271;SDS011;40184;53.362;5.216;2023-07-31T04:12:29;3.80;;;1.30;;
54271;SDS011;40184;53.362;5.216;2023-07-31T04:14:55;3.92;;;1.45;;
54271;SDS011;40184;53.362;5.216;2023-07-31T04:17:21;4.78;;;0.77;;
54271;SDS011;40184;53.362;5.216;2023-07-31T04:19:47;4.30;;;0.73;;
54271;SDS011;40184;53.362;5.216;2023-07-31T04:22:13;3.67;;;0.93;;
54271;SDS011;40184;53.362;5.216;2023-07-31T04:24:39;10.27;;;2.80;;
54271;SDS011;40184;53.362;5.216;2023-07-31T04:27:05;3.72;;;1.13;;
54271;SDS011;40184;53.362;5.216;2023-07-31T04:29:31;4.50;;;1.15;;
54271;SDS011;40184;53.362;5.216;2023-07-31T04:31:57;3.50;;;1.15;;
54271;SDS011;40184;53.362;5.216;2023-07-31T04:34:24;4.03;;;1.00;;
54271;SDS011;40184;53.362;5.216;2023-07-31T04:36:50;7.40;;;1.88;;
54271;SDS011;40184;53.362;5.216;2023-07-31T04:39:16;3.70;;;1.92;;
54271;SDS011;40184;53.362;5.216;2023-07-31T04:41:42;10.15;;;3.53;;
54271;SDS011;40184;53.362;5.216;2023-07-31T04:44:08;10.52;;;3.67;;
54271;SDS011;40184;53.362;5.216;2023-07-31T04:46:36;13.02;;;3.83;;
54271;SDS011;40184;53.362;5.216;2023-07-31T04:49:02;13.88;;;3.83;;
54271;SDS011;40184;53.362;5.216;2023-07-31T04:51:28;16.95;;;4.53;;
54271;SDS011;40184;53.362;5.216;2023-07-31T04:53:55;7.88;;;2.45;;
54271;SDS011;40184;53.362;5.216;2023-07-31T04:56:21;11.43;;;3.15;;
54271;SDS011;40184;53.362;5.216;2023-07-31T04:58:47;6.55;;;2.35;;
54271;SDS011;40184;53.362;5.216;2023-07-31T05:01:13;8.80;;;2.42;;
54271;SDS011;40184;53.362;5.216;2023-07-31T05:03:39;16.45;;;2.92;;
54271;SDS011;40184;53.362;5.216;2023-07-31T05:06:05;9.60;;;2.97;;
54271;SDS011;40184;53.362;5.216;2023-07-31T05:08:31;12.85;;;3.33;;
54271;SDS011;40184;53.362;5.216;2023-07-31T05:10:58;13.55;;;3.33;;
54271;SDS011;40184;53.362;5.216;2023-07-31T05:13:24;16.08;;;3.85;;
54271;SDS011;40184;53.362;5.216;2023-07-31T05:15:50;26.67;;;6.32;;
54271;SDS011;40184;53.362;5.216;2023-07-31T05:18:17;25.08;;;6.93;;
54271;SDS011;40184;53.362;5.216;2023-07-31T05:20:43;17.85;;;5.32;;
54271;SDS011;40184;53.362;5.216;2023-07-31T05:23:09;17.27;;;5.85;;
54271;SDS011;40184;53.362;5.216;2023-07-31T05:25:35;25.35;;;6.20;;
54271;SDS011;40184;53.362;5.216;2023-07-31T05:28:01;15.10;;;5.60;;
54271;SDS011;40184;53.362;5.216;2023-07-31T05:30:29;18.40;;;5.03;;
54271;SDS011;40184;53.362;5.216;2023-07-31T05:32:56;20.08;;;4.75;;
54271;SDS011;40184;53.362;5.216;2023-07-31T05:35:22;16.02;;;5.50;;
54271;SDS011;40184;53.362;5.216;2023-07-31T05:37:48;24.95;;;5.55;;
54271;SDS011;40184;53.362;5.216;2023-07-31T05:40:14;16.42;;;5.45;;
54271;SDS011;40184;53.362;5.216;2023-07-31T05:42:40;13.15;;;4.18;;
54271;SDS011;40184;53.362;5.216;2023-07-31T05:45:06;19.75;;;4.85;;
54271;SDS011;40184;53.362;5.216;2023-07-31T05:47:33;13.10;;;3.47;;
54271;SDS011;40184;53.362;5.216;2023-07-31T05:49:59;10.90;;;2.72;;
54271;SDS011;40184;53.362;5.216;2023-07-31T05:52:25;12.40;;;2.67;;
54271;SDS011;40184;53.362;5.216;2023-07-31T05:54:51;11.10;;;2.83;;
54271;SDS011;40184;53.362;5.216;2023-07-31T05:57:17;9.88;;;2.85;;
54271;SDS011;40184;53.362;5.216;2023-07-31T05:59:43;13.48;;;3.50;;
54271;SDS011;40184;53.362;5.216;2023-07-31T06:02:09;10.68;;;2.53;;
54271;SDS011;40184;53.362;5.216;2023-07-31T06:04:35;8.40;;;2.35;;
54271;SDS011;40184;53.362;5.216;2023-07-31T06:07:01;5.72;;;2.78;;
54271;SDS011;40184;53.362;5.216;2023-07-31T06:09:28;12.13;;;3.55;;
54271;SDS011;40184;53.362;5.216;2023-07-31T06:11:54;9.60;;;2.35;;
54271;SDS011;40184;53.362;5.216;2023-07-31T06:14:20;7.25;;;2.70;;
54271;SDS011;40184;53.362;5.216;2023-07-31T06:16:46;9.27;;;2.80;;
54271;SDS011;40184;53.362;5.216;2023-07-31T06:19:12;7.07;;;2.38;;
54271;SDS011;40184;53.362;5.216;2023-07-31T06:21:39;8.05;;;1.67;;
54271;SDS011;40184;53.362;5.216;2023-07-31T06:24:07;4.82;;;1.60;;
54271;SDS011;40184;53.362;5.216;2023-07-31T06:26:33;10.48;;;1.77;;
54271;SDS011;40184;53.362;5.216;2023-07-31T06:28:59;6.85;;;1.48;;
54271;SDS011;40184;53.362;5.216;2023-07-31T06:31:25;8.38;;;1.70;;
54271;SDS011;40184;53.362;5.216;2023-07-31T06:33:51;6.40;;;1.85;;
54271;SDS011;40184;53.362;5.216;2023-07-31T06:36:18;5.60;;;1.70;;
54271;SDS011;40184;53.362;5.216;2023-07-31T06:38:44;10.68;;;2.70;;
54271;SDS011;40184;53.362;5.216;2023-07-31T06:41:10;6.90;;;2.72;;
54271;SDS011;40184;53.362;5.216;2023-07-31T06:43:36;7.43;;;2.20;;
54271;SDS011;40184;53.362;5.216;2023-07-31T06:46:06;9.50;;;2.92;;
54271;SDS011;40184;53.362;5.216;2023-07-31T06:48:32;8.73;;;2.58;;
54271;SDS011;40184;53.362;5.216;2023-07-31T06:51:00;16.45;;;2.85;;
54271;SDS011;40184;53.362;5.216;2023-07-31T06:53:26;10.02;;;3.13;;
54271;SDS011;40184;53.362;5.216;2023-07-31T06:55:52;12.90;;;3.53;;
54271;SDS011;40184;53.362;5.216;2023-07-31T06:58:18;15.38;;;2.63;;
54271;SDS011;40184;53.362;5.216;2023-07-31T07:00:44;13.70;;;3.30;;
54271;SDS011;40184;53.362;5.216;2023-07-31T07:03:10;11.40;;;2.92;;
54271;SDS011;40184;53.362;5.216;2023-07-31T07:05:36;7.70;;;2.60;;
54271;SDS011;40184;53.362;5.216;2023-07-31T07:08:02;10.85;;;2.80;;
54271;SDS011;40184;53.362;5.216;2023-07-31T07:10:28;12.80;;;3.92;;
54271;SDS011;40184;53.362;5.216;2023-07-31T07:12:54;16.13;;;3.28;;
54271;SDS011;40184;53.362;5.216;2023-07-31T07:15:21;11.13;;;3.30;;
54271;SDS011;40184;53.362;5.216;2023-07-31T07:17:47;17.20;;;4.10;;
54271;SDS011;40184;53.362;5.216;2023-07-31T07:20:13;14.20;;;3.75;;
54271;SDS011;40184;53.362;5.216;2023-07-31T07:22:39;9.65;;;2.67;;
54271;SDS011;40184;53.362;5.216;2023-07-31T07:25:08;8.10;;;2.53;;
54271;SDS011;40184;53.362;5.216;2023-07-31T07:27:34;16.42;;;3.83;;
54271;SDS011;40184;53.362;5.216;2023-07-31T07:30:00;9.27;;;2.38;;
54271;SDS011;40184;53.362;5.216;2023-07-31T07:32:26;9.70;;;3.25;;
54271;SDS011;40184;53.362;5.216;2023-07-31T07:34:53;14.27;;;3.28;;
54271;SDS011;40184;53.362;5.216;2023-07-31T07:37:19;9.00;;;2.67;;
54271;SDS011;40184;53.362;5.216;2023-07-31T07:39:45;10.82;;;3.60;;
54271;SDS011;40184;53.362;5.216;2023-07-31T07:42:11;9.80;;;3.00;;
54271;SDS011;40184;53.362;5.216;2023-07-31T07:44:37;7.53;;;2.70;;
54271;SDS011;40184;53.362;5.216;2023-07-31T07:47:03;10.00;;;3.63;;
54271;SDS011;40184;53.362;5.216;2023-07-31T07:49:31;15.18;;;4.05;;
54271;SDS011;40184;53.362;5.216;2023-07-31T07:51:57;18.02;;;3.20;;
54271;SDS011;40184;53.362;5.216;2023-07-31T07:54:23;13.10;;;3.53;;
54271;SDS011;40184;53.362;5.216;2023-07-31T07:56:49;12.23;;;2.90;;
54271;SDS011;40184;53.362;5.216;2023-07-31T07:59:15;15.27;;;3.83;;
54271;SDS011;40184;53.362;5.216;2023-07-31T08:01:41;20.05;;;4.65;;
54271;SDS011;40184;53.362;5.216;2023-07-31T08:04:07;21.80;;;5.65;;
54271;SDS011;40184;53.362;5.216;2023-07-31T08:06:33;13.50;;;3.85;;
54271;SDS011;40184;53.362;5.216;2023-07-31T08:08:59;10.73;;;3.45;;
54271;SDS011;40184;53.362;5.216;2023-07-31T08:11:31;16.50;;;3.70;;
54271;SDS011;40184;53.362;5.216;2023-07-31T08:13:57;26.95;;;4.70;;
54271;SDS011;40184;53.362;5.216;2023-07-31T08:16:23;11.68;;;2.92;;
54271;SDS011;40184;53.362;5.216;2023-07-31T08:18:49;17.23;;;3.50;;
54271;SDS011;40184;53.362;5.216;2023-07-31T08:21:15;11.88;;;3.00;;
54271;SDS011;40184;53.362;5.216;2023-07-31T08:23:41;14.65;;;3.58;;
54271;SDS011;40184;53.362;5.216;2023-07-31T08:26:07;13.32;;;4.00;;
54271;SDS011;40184;53.362;5.216;2023-07-31T08:28:33;13.88;;;3.90;;
54271;SDS011;40184;53.362;5.216;2023-07-31T08:31:01;8.40;;;3.08;;
54271;SDS011;40184;53.362;5.216;2023-07-31T08:33:27;11.48;;;2.90;;
54271;SDS011;40184;53.362;5.216;2023-07-31T08:35:53;10.98;;;3.20;;
54271;SDS011;40184;53.362;5.216;2023-07-31T08:38:20;9.90;;;2.55;;
54271;SDS011;40184;53.362;5.216;2023-07-31T08:40:46;14.02;;;3.50;;
54271;SDS011;40184;53.362;5.216;2023-07-31T08:43:12;9.80;;;2.80;;
54271;SDS011;40184;53.362;5.216;2023-07-31T08:45:38;9.35;;;2.35;;
54271;SDS011;40184;53.362;5.216;2023-07-31T08:48:07;9.38;;;2.45;;
54271;SDS011;40184;53.362;5.216;2023-07-31T08:50:33;7.65;;;1.98;;
54271;SDS011;40184;53.362;5.216;2023-07-31T08:52:59;8.13;;;1.90;;
54271;SDS011;40184;53.362;5.216;2023-07-31T08:55:25;6.28;;;2.33;;
54271;SDS011;40184;53.362;5.216;2023-07-31T08:57:52;11.07;;;2.47;;
54271;SDS011;40184;53.362;5.216;2023-07-31T09:00:18;8.80;;;2.35;;
54271;SDS011;40184;53.362;5.216;2023-07-31T09:02:56;6.60;;;2.13;;
54271;SDS011;40184;53.362;5.216;2023-07-31T09:05:23;7.32;;;1.92;;
54271;SDS011;40184;53.362;5.216;2023-07-31T09:07:50;6.97;;;1.77;;
54271;SDS011;40184;53.362;5.216;2023-07-31T09:10:17;8.52;;;1.95;;
54271;SDS011;40184;53.362;5.216;2023-07-31T09:12:43;7.05;;;2.20;;
54271;SDS011;40184;53.362;5.216;2023-07-31T09:15:09;7.57;;;1.85;;
54271;SDS011;40184;53.362;5.216;2023-07-31T09:17:36;9.68;;;2.40;;
54271;SDS011;40184;53.362;5.216;2023-07-31T09:20:16;5.00;;;1.13;;
54271;SDS011;40184;53.362;5.216;2023-07-31T09:22:43;5.00;;;1.75;;
54271;SDS011;40184;53.362;5.216;2023-07-31T09:25:16;5.90;;;1.77;;
54271;SDS011;40184;53.362;5.216;2023-07-31T09:27:46;6.50;;;1.40;;
54271;SDS011;40184;53.362;5.216;2023-07-31T09:30:12;2.17;;;1.13;;
54271;SDS011;40184;53.362;5.216;2023-07-31T09:32:38;5.72;;;1.88;;
54271;SDS011;40184;53.362;5.216;2023-07-31T09:37:50;7.53;;;1.83;;
54271;SDS011;40184;53.362;5.216;2023-07-31T09:42:52;6.30;;;1.48;;
54271;SDS011;40184;53.362;5.216;2023-07-31T09:45:18;6.03;;;1.40;;
54271;SDS011;40184;53.362;5.216;2023-07-31T09:47:48;6.10;;;1.80;;
54271;SDS011;40184;53.362;5.216;2023-07-31T09:50:14;6.50;;;1.55;;
54271;SDS011;40184;53.362;5.216;2023-07-31T09:52:41;5.13;;;1.38;;
54271;SDS011;40184;53.362;5.216;2023-07-31T09:55:08;9.18;;;1.60;;
54271;SDS011;40184;53.362;5.216;2023-07-31T09:57:34;8.90;;;1.90;;
54271;SDS011;40184;53.362;5.216;2023-07-31T10:00:02;5.03;;;1.52;;
54271;SDS011;40184;53.362;5.216;2023-07-31T10:02:29;11.40;;;2.22;;
54271;SDS011;40184;53.362;5.216;2023-07-31T10:04:56;8.27;;;2.80;;
54271;SDS011;40184;53.362;5.216;2023-07-31T10:07:23;9.05;;;2.00;;
54271;SDS011;40184;53.362;5.216;2023-07-31T10:09:51;9.05;;;2.05;;
54271;SDS011;40184;53.362;5.216;2023-07-31T10:12:19;13.63;;;2.72;;
54271;SDS011;40184;53.362;5.216;2023-07-31T10:14:45;12.40;;;2.72;;
54271;SDS011;40184;53.362;5.216;2023-07-31T10:17:11;10.40;;;2.40;;
54271;SDS011;40184;53.362;5.216;2023-07-31T10:19:38;9.27;;;2.92;;
54271;SDS011;40184;53.362;5.216;2023-07-31T10:22:04;13.82;;;2.50;;
54271;SDS011;40184;53.362;5.216;2023-07-31T10:24:31;10.65;;;2.15;;
54271;SDS011;40184;53.362;5.216;2023-07-31T10:26:58;14.50;;;3.13;;
54271;SDS011;40184;53.362;5.216;2023-07-31T10:29:25;11.85;;;2.78;;
54271;SDS011;40184;53.362;5.216;2023-07-31T10:31:52;9.35;;;2.67;;
54271;SDS011;40184;53.362;5.216;2023-07-31T10:34:18;11.32;;;3.40;;
54271;SDS011;40184;53.362;5.216;2023-07-31T10:36:44;11.77;;;2.47;;
54271;SDS011;40184;53.362;5.216;2023-07-31T10:41:55;13.23;;;2.53;;
54271;SDS011;40184;53.362;5.216;2023-07-31T10:44:21;10.15;;;2.58;;
54271;SDS011;40184;53.362;5.216;2023-07-31T10:46:47;10.57;;;2.80;;
54271;SDS011;40184;53.362;5.216;2023-07-31T10:49:13;12.25;;;2.63;;
54271;SDS011;40184;53.362;5.216;2023-07-31T10:51:47;11.93;;;2.38;;
54271;SDS011;40184;53.362;5.216;2023-07-31T10:54:13;13.63;;;2.58;;
54271;SDS011;40184;53.362;5.216;2023-07-31T10:56:40;8.00;;;2.40;;
54271;SDS011;40184;53.362;5.216;2023-07-31T10:59:10;16.27;;;2.97;;
54271;SDS011;40184;53.362;5.216;2023-07-31T11:01:50;9.50;;;2.45;;
54271;SDS011;40184;53.362;5.216;2023-07-31T11:04:21;10.90;;;2.78;;
54271;SDS011;40184;53.362;5.216;2023-07-31T11:06:58;9.95;;;2.25;;
54271;SDS011;40184;53.362;5.216;2023-07-31T11:09:27;5.05;;;1.33;;
54271;SDS011;40184;53.362;5.216;2023-07-31T11:11:54;4.55;;;1.63;;
54271;SDS011;40184;53.362;5.216;2023-07-31T11:14:20;11.63;;;2.33;;
54271;SDS011;40184;53.362;5.216;2023-07-31T11:16:49;9.60;;;2.50;;
54271;SDS011;40184;53.362;5.216;2023-07-31T11:19:20;12.43;;;2.67;;
54271;SDS011;40184;53.362;5.216;2023-07-31T11:24:13;8.68;;;2.55;;
54271;SDS011;40184;53.362;5.216;2023-07-31T11:26:47;9.88;;;2.47;;
54271;SDS011;40184;53.362;5.216;2023-07-31T11:29:13;11.43;;;2.33;;
54271;SDS011;40184;53.362;5.216;2023-07-31T11:31:43;10.63;;;2.47;;
54271;SDS011;40184;53.362;5.216;2023-07-31T11:34:09;4.32;;;1.77;;
54271;SDS011;40184;53.362;5.216;2023-07-31T11:36:35;8.80;;;2.35;;
54271;SDS011;40184;53.362;5.216;2023-07-31T11:39:07;5.93;;;1.90;;
54271;SDS011;40184;53.362;5.216;2023-07-31T11:41:34;5.93;;;1.85;;
54271;SDS011;40184;53.362;5.216;2023-07-31T11:44:00;13.00;;;2.85;;
54271;SDS011;40184;53.362;5.216;2023-07-31T11:46:27;12.88;;;3.60;;
54271;SDS011;40184;53.362;5.216;2023-07-31T11:48:55;9.57;;;2.05;;
54271;SDS011;40184;53.362;5.216;2023-07-31T11:51:24;12.07;;;2.80;;
54271;SDS011;40184;53.362;5.216;2023-07-31T11:53:51;9.95;;;2.65;;
54271;SDS011;40184;53.362;5.216;2023-07-31T11:56:19;9.88;;;3.38;;
54271;SDS011;40184;53.362;5.216;2023-07-31T11:58:48;14.93;;;2.92;;
54271;SDS011;40184;53.362;5.216;2023-07-31T12:01:18;7.85;;;2.83;;
54271;SDS011;40184;53.362;5.216;2023-07-31T12:03:45;9.32;;;2.15;;
54271;SDS011;40184;53.362;5.216;2023-07-31T12:06:11;9.65;;;2.67;;
54271;SDS011;40184;53.362;5.216;2023-07-31T12:08:38;14.98;;;2.80;;
54271;SDS011;40184;53.362;5.216;2023-07-31T12:11:04;14.35;;;3.03;;
54271;SDS011;40184;53.362;5.216;2023-07-31T12:13:31;10.90;;;3.97;;
54271;SDS011;40184;53.362;5.216;2023-07-31T12:15:58;11.63;;;3.17;;
54271;SDS011;40184;53.362;5.216;2023-07-31T12:18:25;16.52;;;4.05;;
54271;SDS011;40184;53.362;5.216;2023-07-31T12:20:59;9.02;;;3.15;;
54271;SDS011;40184;53.362;5.216;2023-07-31T12:23:28;15.57;;;4.40;;
54271;SDS011;40184;53.362;5.216;2023-07-31T12:28:50;19.90;;;4.25;;
54271;SDS011;40184;53.362;5.216;2023-07-31T12:31:17;18.77;;;3.55;;
54271;SDS011;40184;53.362;5.216;2023-07-31T12:33:44;14.35;;;2.97;;
54271;SDS011;40184;53.362;5.216;2023-07-31T12:36:15;16.90;;;3.17;;
54271;SDS011;40184;53.362;5.216;2023-07-31T12:38:41;21.70;;;6.27;;
54271;SDS011;40184;53.362;5.216;2023-07-31T12:41:08;14.15;;;4.43;;
54271;SDS011;40184;53.362;5.216;2023-07-31T12:43:34;19.73;;;4.13;;
54271;SDS011;40184;53.362;5.216;2023-07-31T12:46:00;15.88;;;3.63;;
54271;SDS011;40184;53.362;5.216;2023-07-31T12:48:26;28.27;;;4.22;;
54271;SDS011;40184;53.362;5.216;2023-07-31T12:50:52;17.70;;;3.65;;
54271;SDS011;40184;53.362;5.216;2023-07-31T12:53:19;15.43;;;3.92;;
54271;SDS011;40184;53.362;5.216;2023-07-31T12:55:45;25.05;;;4.88;;
54271;SDS011;40184;53.362;5.216;2023-07-31T12:58:11;16.85;;;4.55;;
54271;SDS011;40184;53.362;5.216;2023-07-31T13:00:37;20.75;;;4.82;;
54271;SDS011;40184;53.362;5.216;2023-07-31T13:03:03;15.10;;;3.53;;
54271;SDS011;40184;53.362;5.216;2023-07-31T13:05:29;11.52;;;3.15;;
54271;SDS011;40184;53.362;5.216;2023-07-31T13:07:55;22.98;;;5.68;;
54271;SDS011;40184;53.362;5.216;2023-07-31T13:10:22;15.85;;;3.78;;
54271;SDS011;40184;53.362;5.216;2023-07-31T13:12:48;22.10;;;4.38;;
54271;SDS011;40184;53.362;5.216;2023-07-31T13:15:14;24.98;;;5.40;;
54271;SDS011;40184;53.362;5.216;2023-07-31T13:17:40;20.05;;;4.25;;
54271;SDS011;40184;53.362;5.216;2023-07-31T13:20:07;21.08;;;4.55;;
54271;SDS011;40184;53.362;5.216;2023-07-31T13:22:33;14.57;;;3.90;;
54271;SDS011;40184;53.362;5.216;2023-07-31T13:24:59;25.75;;;7.47;;
54271;SDS011;40184;53.362;5.216;2023-07-31T13:27:25;13.55;;;3.58;;
54271;SDS011;40184;53.362;5.216;2023-07-31T13:29:52;16.95;;;4.38;;
54271;SDS011;40184;53.362;5.216;2023-07-31T13:32:18;10.40;;;3.55;;
54271;SDS011;40184;53.362;5.216;2023-07-31T13:34:48;22.25;;;4.70;;
54271;SDS011;40184;53.362;5.216;2023-07-31T13:37:14;17.73;;;4.78;;
54271;SDS011;40184;53.362;5.216;2023-07-31T13:39:40;17.50;;;4.15;;
54271;SDS011;40184;53.362;5.216;2023-07-31T13:42:07;17.10;;;3.78;;
54271;SDS011;40184;53.362;5.216;2023-07-31T13:44:36;15.95;;;5.18;;
54271;SDS011;40184;53.362;5.216;2023-07-31T13:47:02;15.30;;;4.43;;
54271;SDS011;40184;53.362;5.216;2023-07-31T13:49:29;15.05;;;3.88;;
54271;SDS011;40184;53.362;5.216;2023-07-31T13:51:55;14.05;;;4.55;;
54271;SDS011;40184;53.362;5.216;2023-07-31T13:54:22;20.80;;;5.18;;
54271;SDS011;40184;53.362;5.216;2023-07-31T13:56:48;19.33;;;4.50;;
54271;SDS011;40184;53.362;5.216;2023-07-31T13:59:15;12.40;;;4.80;;
54271;SDS011;40184;53.362;5.216;2023-07-31T14:01:42;15.27;;;4.18;;
54271;SDS011;40184;53.362;5.216;2023-07-31T14:04:08;19.63;;;4.28;;
54271;SDS011;40184;53.362;5.216;2023-07-31T14:06:34;17.70;;;4.30;;
54271;SDS011;40184;53.362;5.216;2023-07-31T14:09:00;17.33;;;5.45;;
54271;SDS011;40184;53.362;5.216;2023-07-31T14:11:27;19.25;;;4.88;;
54271;SDS011;40184;53.362;5.216;2023-07-31T14:13:53;23.73;;;4.55;;
54271;SDS011;40184;53.362;5.216;2023-07-31T14:16:19;18.98;;;4.90;;
54271;SDS011;40184;53.362;5.216;2023-07-31T14:18:46;23.70;;;5.43;;
54271;SDS011;40184;53.362;5.216;2023-07-31T14:21:12;19.05;;;5.05;;
54271;SDS011;40184;53.362;5.216;2023-07-31T14:23:38;29.55;;;6.47;;
54271;SDS011;40184;53.362;5.216;2023-07-31T14:26:04;15.93;;;5.63;;
54271;SDS011;40184;53.362;5.216;2023-07-31T14:28:30;17.42;;;4.38;;
54271;SDS011;40184;53.362;5.216;2023-07-31T14:30:56;22.83;;;5.55;;
54271;SDS011;40184;53.362;5.216;2023-07-31T14:33:22;14.13;;;4.18;;
54271;SDS011;40184;53.362;5.216;2023-07-31T14:35:48;15.90;;;4.20;;
54271;SDS011;40184;53.362;5.216;2023-07-31T14:38:15;18.27;;;5.28;;
54271;SDS011;40184;53.362;5.216;2023-07-31T14:40:41;20.85;;;5.18;;
54271;SDS011;40184;53.362;5.216;2023-07-31T14:43:07;21.75;;;4.47;;
54271;SDS011;40184;53.362;5.216;2023-07-31T14:45:33;21.83;;;5.07;;
54271;SDS011;40184;53.362;5.216;2023-07-31T14:47:59;19.05;;;4.05;;
54271;SDS011;40184;53.362;5.216;2023-07-31T14:50:25;22.92;;;5.50;;
54271;SDS011;40184;53.362;5.216;2023-07-31T14:52:52;28.20;;;5.90;;
54271;SDS011;40184;53.362;5.216;2023-07-31T14:55:18;17.73;;;4.53;;
54271;SDS011;40184;53.362;5.216;2023-07-31T14:57:44;23.48;;;5.43;;